sensor_id;sensor_type;location;lat;lon;timestamp;pressure;altitude;pressure_sealevel;temperature;humidity
56582;BME280;42463;52.214;21.238;2023-07-08T00:00:35;100936.19;;;17.99;53.03
56582;BME280;42463;52.214;21.238;2023-07-08T00:03:01;100940.67;;;17.90;53.09
56582;BME280;42463;52.214;21.238;2023-07-08T00:05:09;100939.08;;;17.85;53.31
56582;BME280;42463;52.214;21.238;2023-07-08T00:07:17;100938.61;;;17.82;53.36
56582;BME280;42463;52.214;21.238;2023-07-08T00:09:24;100936.37;;;17.82;53.61
56582;BME280;42463;52.214;21.238;2023-07-08T00:11:30;100938.19;;;17.81;53.62
56582;BME280;42463;52.214;21.238;2023-07-08T00:13:35;100936.70;;;17.76;53.66
56582;BME280;42463;52.214;21.238;2023-07-08T00:15:41;100933.23;;;17.72;53.57
56582;BME280;42463;52.214;21.238;2023-07-08T00:17:46;100935.43;;;17.72;53.78
56582;BME280;42463;52.214;21.238;2023-07-08T00:19:52;100940.16;;;17.71;53.82
56582;BME280;42463;52.214;21.238;2023-07-08T00:21:59;100939.34;;;17.70;53.70
56582;BME280;42463;52.214;21.238;2023-07-08T00:24:06;100937.48;;;17.68;53.74
56582;BME280;42463;52.214;21.238;2023-07-08T00:26:15;100936.10;;;17.67;54.17
56582;BME280;42463;52.214;21.238;2023-07-08T00:28:22;100942.84;;;17.66;54.08
56582;BME280;42463;52.214;21.238;2023-07-08T00:30:29;100941.73;;;17.65;54.07
56582;BME280;42463;52.214;21.238;2023-07-08T00:32:35;100945.77;;;17.62;54.16
56582;BME280;42463;52.214;21.238;2023-07-08T00:34:46;100946.05;;;17.61;54.17
56582;BME280;42463;52.214;21.238;2023-07-08T00:36:51;100946.39;;;17.61;54.22
56582;BME280;42463;52.214;21.238;2023-07-08T00:38:56;100942.50;;;17.60;54.33
56582;BME280;42463;52.214;21.238;2023-07-08T00:41:08;100943.10;;;17.60;54.44
56582;BME280;42463;52.214;21.238;2023-07-08T00:43:15;100941.70;;;17.58;54.42
56582;BME280;42463;52.214;21.238;2023-07-08T00:45:31;100943.20;;;17.55;54.45
56582;BME280;42463;52.214;21.238;2023-07-08T00:47:37;100940.21;;;17.51;54.54
56582;BME280;42463;52.214;21.238;2023-07-08T00:49:47;100938.77;;;17.48;54.72
56582;BME280;42463;52.214;21.238;2023-07-08T00:51:55;100939.83;;;17.46;54.62
56582;BME280;42463;52.214;21.238;2023-07-08T00:54:00;100937.11;;;17.43;54.63
56582;BME280;42463;52.214;21.238;2023-07-08T00:56:08;100942.34;;;17.40;54.77
56582;BME280;42463;52.214;21.238;2023-07-08T00:58:18;100940.45;;;17.38;54.88
56582;BME280;42463;52.214;21.238;2023-07-08T01:03:32;100942.47;;;17.31;54.69
56582;BME280;42463;52.214;21.238;2023-07-08T01:05:41;100937.61;;;17.29;54.85
56582;BME280;42463;52.214;21.238;2023-07-08T01:07:51;100942.72;;;17.27;54.90
56582;BME280;42463;52.214;21.238;2023-07-08T01:10:04;100941.42;;;17.25;54.96
56582;BME280;42463;52.214;21.238;2023-07-08T01:12:14;100940.02;;;17.22;54.97
56582;BME280;42463;52.214;21.238;2023-07-08T01:14:21;100939.66;;;17.19;55.18
56582;BME280;42463;52.214;21.238;2023-07-08T01:16:27;100940.70;;;17.17;55.01
56582;BME280;42463;52.214;21.238;2023-07-08T01:18:33;100939.38;;;17.12;55.10
56582;BME280;42463;52.214;21.238;2023-07-08T01:20:40;100940.77;;;17.09;55.10
56582;BME280;42463;52.214;21.238;2023-07-08T01:22:46;100942.22;;;17.06;55.30
56582;BME280;42463;52.214;21.238;2023-07-08T01:24:51;100943.01;;;17.03;55.40
56582;BME280;42463;52.214;21.238;2023-07-08T01:26:57;100945.98;;;17.01;55.46
56582;BME280;42463;52.214;21.238;2023-07-08T01:29:04;100943.65;;;16.97;55.69
56582;BME280;42463;52.214;21.238;2023-07-08T01:31:11;100941.42;;;16.93;55.71
56582;BME280;42463;52.214;21.238;2023-07-08T01:33:20;100941.08;;;16.88;55.79
56582;BME280;42463;52.214;21.238;2023-07-08T01:35:26;100940.27;;;16.85;55.97
56582;BME280;42463;52.214;21.238;2023-07-08T01:37:35;100941.33;;;16.82;55.94
56582;BME280;42463;52.214;21.238;2023-07-08T01:39:41;100941.23;;;16.80;56.14
56582;BME280;42463;52.214;21.238;2023-07-08T01:41:47;100950.56;;;16.78;56.50
56582;BME280;42463;52.214;21.238;2023-07-08T01:43:52;100950.58;;;16.76;56.59
56582;BME280;42463;52.214;21.238;2023-07-08T01:46:00;100952.79;;;16.73;56.44
56582;BME280;42463;52.214;21.238;2023-07-08T01:48:10;100951.82;;;16.68;56.58
56582;BME280;42463;52.214;21.238;2023-07-08T01:50:16;100947.01;;;16.67;56.59
56582;BME280;42463;52.214;21.238;2023-07-08T01:52:23;100947.09;;;16.65;56.82
56582;BME280;42463;52.214;21.238;2023-07-08T01:54:28;100948.13;;;16.61;56.76
56582;BME280;42463;52.214;21.238;2023-07-08T01:56:33;100949.17;;;16.58;56.79
56582;BME280;42463;52.214;21.238;2023-07-08T01:58:39;100943.17;;;16.54;56.94
56582;BME280;42463;52.214;21.238;2023-07-08T02:00:44;100940.45;;;16.50;56.88
56582;BME280;42463;52.214;21.238;2023-07-08T02:02:52;100945.89;;;16.47;57.09
56582;BME280;42463;52.214;21.238;2023-07-08T02:04:58;100943.54;;;16.45;57.03
56582;BME280;42463;52.214;21.238;2023-07-08T02:07:04;100946.23;;;16.43;57.15
56582;BME280;42463;52.214;21.238;2023-07-08T02:09:09;100947.39;;;16.40;57.17
56582;BME280;42463;52.214;21.238;2023-07-08T02:11:15;100945.55;;;16.37;57.21
56582;BME280;42463;52.214;21.238;2023-07-08T02:13:21;100943.27;;;16.33;57.36
56582;BME280;42463;52.214;21.238;2023-07-08T02:15:28;100941.69;;;16.31;57.18
56582;BME280;42463;52.214;21.238;2023-07-08T02:17:34;100942.20;;;16.26;57.46
56582;BME280;42463;52.214;21.238;2023-07-08T02:19:39;100943.08;;;16.25;57.49
56582;BME280;42463;52.214;21.238;2023-07-08T02:21:45;100943.41;;;16.24;57.54
56582;BME280;42463;52.214;21.238;2023-07-08T02:23:51;100941.83;;;16.23;57.61
56582;BME280;42463;52.214;21.238;2023-07-08T02:25:57;100935.73;;;16.22;57.87
56582;BME280;42463;52.214;21.238;2023-07-08T02:28:02;100938.55;;;16.21;57.72
56582;BME280;42463;52.214;21.238;2023-07-08T02:30:09;100938.48;;;16.19;57.84
56582;BME280;42463;52.214;21.238;2023-07-08T02:32:17;100937.58;;;16.17;58.04
56582;BME280;42463;52.214;21.238;2023-07-08T02:34:22;100937.02;;;16.16;58.06
56582;BME280;42463;52.214;21.238;2023-07-08T02:36:28;100938.23;;;16.14;58.24
56582;BME280;42463;52.214;21.238;2023-07-08T02:38:34;100938.35;;;16.14;58.22
56582;BME280;42463;52.214;21.238;2023-07-08T02:40:40;100939.44;;;16.12;58.20
56582;BME280;42463;52.214;21.238;2023-07-08T02:42:45;100936.23;;;16.10;58.13
56582;BME280;42463;52.214;21.238;2023-07-08T02:44:50;100934.70;;;16.08;58.22
56582;BME280;42463;52.214;21.238;2023-07-08T02:46:56;100936.56;;;16.07;58.16
56582;BME280;42463;52.214;21.238;2023-07-08T02:49:01;100937.22;;;16.05;58.15
56582;BME280;42463;52.214;21.238;2023-07-08T02:51:08;100932.42;;;16.01;58.13
56582;BME280;42463;52.214;21.238;2023-07-08T02:53:14;100932.75;;;15.98;58.37
56582;BME280;42463;52.214;21.238;2023-07-08T02:55:20;100931.49;;;15.99;58.44
56582;BME280;42463;52.214;21.238;2023-07-08T02:57:25;100935.98;;;15.99;58.38
56582;BME280;42463;52.214;21.238;2023-07-08T02:59:30;100935.59;;;15.99;58.35
56582;BME280;42463;52.214;21.238;2023-07-08T03:01:36;100940.46;;;16.00;58.36
56582;BME280;42463;52.214;21.238;2023-07-08T03:03:45;100941.77;;;15.98;58.28
56582;BME280;42463;52.214;21.238;2023-07-08T03:06:00;100940.38;;;15.96;58.42
56582;BME280;42463;52.214;21.238;2023-07-08T03:08:07;100939.02;;;15.95;58.42
56582;BME280;42463;52.214;21.238;2023-07-08T03:10:12;100939.55;;;15.95;58.35
56582;BME280;42463;52.214;21.238;2023-07-08T03:12:17;100942.52;;;15.94;58.46
56582;BME280;42463;52.214;21.238;2023-07-08T03:14:23;100943.45;;;15.91;58.62
56582;BME280;42463;52.214;21.238;2023-07-08T03:16:28;100942.08;;;15.89;58.69
56582;BME280;42463;52.214;21.238;2023-07-08T03:18:34;100945.59;;;15.88;58.70
56582;BME280;42463;52.214;21.238;2023-07-08T03:20:43;100944.48;;;15.88;58.81
56582;BME280;42463;52.214;21.238;2023-07-08T03:22:50;100946.18;;;15.92;59.00
56582;BME280;42463;52.214;21.238;2023-07-08T03:24:55;100946.55;;;15.98;59.12
56582;BME280;42463;52.214;21.238;2023-07-08T03:27:01;100952.83;;;16.05;59.15
56582;BME280;42463;52.214;21.238;2023-07-08T03:29:14;100947.11;;;16.11;59.12
56582;BME280;42463;52.214;21.238;2023-07-08T03:31:20;100945.84;;;16.16;58.91
56582;BME280;42463;52.214;21.238;2023-07-08T03:33:27;100946.27;;;16.20;58.79
56582;BME280;42463;52.214;21.238;2023-07-08T03:35:33;100943.35;;;16.24;58.93
56582;BME280;42463;52.214;21.238;2023-07-08T03:37:38;100940.82;;;16.28;58.86
56582;BME280;42463;52.214;21.238;2023-07-08T03:39:45;100949.79;;;16.32;58.84
56582;BME280;42463;52.214;21.238;2023-07-08T03:41:51;100945.77;;;16.38;58.91
56582;BME280;42463;52.214;21.238;2023-07-08T03:43:57;100943.17;;;16.42;58.67
56582;BME280;42463;52.214;21.238;2023-07-08T03:46:02;100945.06;;;16.48;58.77
56582;BME280;42463;52.214;21.238;2023-07-08T03:48:09;100942.02;;;16.52;58.62
56582;BME280;42463;52.214;21.238;2023-07-08T03:50:19;100943.76;;;16.57;58.67
56582;BME280;42463;52.214;21.238;2023-07-08T03:52:25;100948.35;;;16.61;58.55
56582;BME280;42463;52.214;21.238;2023-07-08T03:54:31;100948.17;;;16.64;58.61
56582;BME280;42463;52.214;21.238;2023-07-08T03:56:37;100949.64;;;16.67;58.39
56582;BME280;42463;52.214;21.238;2023-07-08T03:58:42;100948.30;;;16.70;58.59
56582;BME280;42463;52.214;21.238;2023-07-08T04:00:48;100948.94;;;16.75;58.71
56582;BME280;42463;52.214;21.238;2023-07-08T04:02:53;100948.19;;;16.81;58.52
56582;BME280;42463;52.214;21.238;2023-07-08T04:05:00;100940.59;;;16.86;58.59
56582;BME280;42463;52.214;21.238;2023-07-08T04:07:07;100941.98;;;16.92;58.38
56582;BME280;42463;52.214;21.238;2023-07-08T04:09:13;100940.24;;;16.98;58.43
56582;BME280;42463;52.214;21.238;2023-07-08T04:11:20;100941.23;;;17.06;58.39
56582;BME280;42463;52.214;21.238;2023-07-08T04:13:26;100941.63;;;17.12;58.35
56582;BME280;42463;52.214;21.238;2023-07-08T04:15:31;100939.51;;;17.17;57.98
56582;BME280;42463;52.214;21.238;2023-07-08T04:17:41;100941.93;;;17.23;58.06
56582;BME280;42463;52.214;21.238;2023-07-08T04:19:47;100942.39;;;17.27;57.91
56582;BME280;42463;52.214;21.238;2023-07-08T04:21:52;100934.36;;;17.31;58.06
56582;BME280;42463;52.214;21.238;2023-07-08T04:23:58;100936.13;;;17.36;58.12
56582;BME280;42463;52.214;21.238;2023-07-08T04:26:03;100934.73;;;17.44;58.22
56582;BME280;42463;52.214;21.238;2023-07-08T04:28:08;100937.18;;;17.53;58.12
56582;BME280;42463;52.214;21.238;2023-07-08T04:30:21;100939.34;;;17.63;58.35
56582;BME280;42463;52.214;21.238;2023-07-08T04:32:27;100945.65;;;17.76;58.32
56582;BME280;42463;52.214;21.238;2023-07-08T04:34:32;100947.77;;;17.88;58.32
56582;BME280;42463;52.214;21.238;2023-07-08T04:36:38;100950.92;;;18.01;57.99
56582;BME280;42463;52.214;21.238;2023-07-08T04:38:43;100949.40;;;18.11;57.87
56582;BME280;42463;52.214;21.238;2023-07-08T04:40:52;100948.92;;;18.19;57.81
56582;BME280;42463;52.214;21.238;2023-07-08T04:42:59;100942.89;;;18.28;57.29
56582;BME280;42463;52.214;21.238;2023-07-08T04:45:05;100935.74;;;18.37;57.12
56582;BME280;42463;52.214;21.238;2023-07-08T04:47:11;100935.02;;;18.46;57.04
56582;BME280;42463;52.214;21.238;2023-07-08T04:49:18;100938.55;;;18.55;56.71
56582;BME280;42463;52.214;21.238;2023-07-08T04:51:23;100936.60;;;18.61;56.42
56582;BME280;42463;52.214;21.238;2023-07-08T04:53:29;100937.67;;;18.69;56.25
56582;BME280;42463;52.214;21.238;2023-07-08T04:55:34;100937.48;;;18.77;56.40
56582;BME280;42463;52.214;21.238;2023-07-08T04:57:40;100937.57;;;18.87;56.36
56582;BME280;42463;52.214;21.238;2023-07-08T04:59:45;100934.29;;;18.96;55.98
56582;BME280;42463;52.214;21.238;2023-07-08T05:01:50;100935.13;;;19.02;56.07
56582;BME280;42463;52.214;21.238;2023-07-08T05:03:57;100934.81;;;19.09;55.96
56582;BME280;42463;52.214;21.238;2023-07-08T05:06:02;100934.48;;;19.16;56.22
56582;BME280;42463;52.214;21.238;2023-07-08T05:08:08;100934.51;;;19.25;55.98
56582;BME280;42463;52.214;21.238;2023-07-08T05:10:14;100937.27;;;19.34;55.66
56582;BME280;42463;52.214;21.238;2023-07-08T05:12:20;100936.91;;;19.42;55.21
56582;BME280;42463;52.214;21.238;2023-07-08T05:14:25;100938.42;;;19.50;54.83
56582;BME280;42463;52.214;21.238;2023-07-08T05:16:32;100940.83;;;19.60;54.66
56582;BME280;42463;52.214;21.238;2023-07-08T05:18:38;100941.41;;;19.67;54.56
56582;BME280;42463;52.214;21.238;2023-07-08T05:20:43;100937.10;;;19.75;54.40
56582;BME280;42463;52.214;21.238;2023-07-08T05:22:55;100940.21;;;19.83;54.37
56582;BME280;42463;52.214;21.238;2023-07-08T05:25:00;100936.20;;;19.91;54.35
56582;BME280;42463;52.214;21.238;2023-07-08T05:27:06;100935.69;;;19.98;53.80
56582;BME280;42463;52.214;21.238;2023-07-08T05:29:11;100933.06;;;20.06;53.03
56582;BME280;42463;52.214;21.238;2023-07-08T05:31:17;100934.27;;;20.11;52.26
56582;BME280;42463;52.214;21.238;2023-07-08T05:33:23;100934.29;;;20.16;52.35
56582;BME280;42463;52.214;21.238;2023-07-08T05:35:28;100928.58;;;20.24;51.71
56582;BME280;42463;52.214;21.238;2023-07-08T05:37:33;100930.63;;;20.31;51.77
56582;BME280;42463;52.214;21.238;2023-07-08T05:39:39;100932.59;;;20.38;51.65
56582;BME280;42463;52.214;21.238;2023-07-08T05:41:45;100933.61;;;20.46;51.20
56582;BME280;42463;52.214;21.238;2023-07-08T05:43:50;100932.91;;;20.53;51.40
56582;BME280;42463;52.214;21.238;2023-07-08T05:46:00;100932.90;;;20.61;51.27
56582;BME280;42463;52.214;21.238;2023-07-08T05:48:06;100933.88;;;20.69;51.69
56582;BME280;42463;52.214;21.238;2023-07-08T05:50:12;100932.27;;;20.76;52.14
56582;BME280;42463;52.214;21.238;2023-07-08T05:52:17;100930.71;;;20.84;51.77
56582;BME280;42463;52.214;21.238;2023-07-08T05:54:22;100930.14;;;20.92;51.55
56582;BME280;42463;52.214;21.238;2023-07-08T05:56:28;100927.92;;;20.97;52.02
56582;BME280;42463;52.214;21.238;2023-07-08T05:58:35;100927.67;;;21.03;52.00
56582;BME280;42463;52.214;21.238;2023-07-08T06:00:40;100919.89;;;21.08;52.35
56582;BME280;42463;52.214;21.238;2023-07-08T06:02:46;100921.50;;;21.14;52.36
56582;BME280;42463;52.214;21.238;2023-07-08T06:04:51;100925.89;;;21.22;52.02
56582;BME280;42463;52.214;21.238;2023-07-08T06:06:57;100922.64;;;21.29;51.40
56582;BME280;42463;52.214;21.238;2023-07-08T06:09:03;100924.09;;;21.36;51.24
56582;BME280;42463;52.214;21.238;2023-07-08T06:11:09;100927.38;;;21.41;51.08
56582;BME280;42463;52.214;21.238;2023-07-08T06:13:14;100925.77;;;21.48;51.15
56582;BME280;42463;52.214;21.238;2023-07-08T06:15:20;100921.83;;;21.57;50.99
56582;BME280;42463;52.214;21.238;2023-07-08T06:17:25;100917.21;;;21.63;49.73
56582;BME280;42463;52.214;21.238;2023-07-08T06:19:31;100914.26;;;21.70;49.45
56582;BME280;42463;52.214;21.238;2023-07-08T06:21:37;100912.15;;;21.77;49.56
56582;BME280;42463;52.214;21.238;2023-07-08T06:23:43;100910.66;;;21.83;49.91
56582;BME280;42463;52.214;21.238;2023-07-08T06:25:48;100913.52;;;21.92;50.00
56582;BME280;42463;52.214;21.238;2023-07-08T06:27:54;100911.23;;;22.01;49.71
56582;BME280;42463;52.214;21.238;2023-07-08T06:30:00;100909.59;;;22.09;48.53
56582;BME280;42463;52.214;21.238;2023-07-08T06:32:08;100911.05;;;22.18;48.27
56582;BME280;42463;52.214;21.238;2023-07-08T06:34:13;100912.19;;;22.27;48.30
56582;BME280;42463;52.214;21.238;2023-07-08T06:36:19;100909.57;;;22.35;47.73
56582;BME280;42463;52.214;21.238;2023-07-08T06:38:25;100907.45;;;22.43;46.96
56582;BME280;42463;52.214;21.238;2023-07-08T06:40:30;100903.75;;;22.52;46.44
56582;BME280;42463;52.214;21.238;2023-07-08T06:42:36;100905.23;;;22.59;45.60
56582;BME280;42463;52.214;21.238;2023-07-08T06:45:06;100907.48;;;22.69;44.52
56582;BME280;42463;52.214;21.238;2023-07-08T06:47:11;100907.14;;;22.77;45.43
56582;BME280;42463;52.214;21.238;2023-07-08T06:49:17;100906.33;;;22.86;45.77
56582;BME280;42463;52.214;21.238;2023-07-08T06:51:22;100905.31;;;22.96;45.83
56582;BME280;42463;52.214;21.238;2023-07-08T06:53:27;100902.67;;;23.04;45.25
56582;BME280;42463;52.214;21.238;2023-07-08T06:55:33;100901.44;;;23.11;45.32
56582;BME280;42463;52.214;21.238;2023-07-08T06:57:38;100900.30;;;23.17;45.18
56582;BME280;42463;52.214;21.238;2023-07-08T06:59:44;100898.30;;;23.22;45.02
56582;BME280;42463;52.214;21.238;2023-07-08T07:01:49;100898.39;;;23.29;45.17
56582;BME280;42463;52.214;21.238;2023-07-08T07:03:54;100894.80;;;23.33;43.76
56582;BME280;42463;52.214;21.238;2023-07-08T07:06:00;100893.61;;;23.40;42.76
56582;BME280;42463;52.214;21.238;2023-07-08T07:08:06;100888.70;;;23.47;41.86
56582;BME280;42463;52.214;21.238;2023-07-08T07:10:12;100886.98;;;23.54;41.30
56582;BME280;42463;52.214;21.238;2023-07-08T07:12:17;100883.88;;;23.62;40.25
56582;BME280;42463;52.214;21.238;2023-07-08T07:14:23;100879.88;;;23.68;39.62
56582;BME280;42463;52.214;21.238;2023-07-08T07:16:33;100884.42;;;23.74;39.89
56582;BME280;42463;52.214;21.238;2023-07-08T07:18:38;100881.27;;;23.79;40.70
56582;BME280;42463;52.214;21.238;2023-07-08T07:20:52;100882.42;;;23.85;40.38
56582;BME280;42463;52.214;21.238;2023-07-08T07:22:58;100881.77;;;23.92;40.08
56582;BME280;42463;52.214;21.238;2023-07-08T07:25:03;100885.73;;;23.97;39.21
56582;BME280;42463;52.214;21.238;2023-07-08T07:27:10;100886.17;;;24.02;39.02
56582;BME280;42463;52.214;21.238;2023-07-08T07:29:17;100881.86;;;24.07;38.78
56582;BME280;42463;52.214;21.238;2023-07-08T07:31:22;100882.69;;;24.12;40.28
56582;BME280;42463;52.214;21.238;2023-07-08T07:33:29;100876.75;;;24.18;40.97
56582;BME280;42463;52.214;21.238;2023-07-08T07:35:35;100878.00;;;24.23;40.18
56582;BME280;42463;52.214;21.238;2023-07-08T07:37:41;100872.92;;;24.29;40.32
56582;BME280;42463;52.214;21.238;2023-07-08T07:39:47;100874.01;;;24.36;40.77
56582;BME280;42463;52.214;21.238;2023-07-08T07:41:52;100874.20;;;24.40;39.74
56582;BME280;42463;52.214;21.238;2023-07-08T07:43:58;100873.44;;;24.47;40.34
56582;BME280;42463;52.214;21.238;2023-07-08T07:46:04;100872.73;;;24.56;40.82
56582;BME280;42463;52.214;21.238;2023-07-08T07:48:10;100874.61;;;24.61;39.96
56582;BME280;42463;52.214;21.238;2023-07-08T07:50:14;100872.64;;;24.66;39.89
56582;BME280;42463;52.214;21.238;2023-07-08T07:52:18;100870.94;;;24.75;39.83
56582;BME280;42463;52.214;21.238;2023-07-08T07:54:26;100870.23;;;24.86;38.87
56582;BME280;42463;52.214;21.238;2023-07-08T07:56:31;100870.27;;;24.95;39.42
56582;BME280;42463;52.214;21.238;2023-07-08T07:58:35;100869.17;;;25.05;39.26
56582;BME280;42463;52.214;21.238;2023-07-08T08:00:40;100871.21;;;25.13;36.53
56582;BME280;42463;52.214;21.238;2023-07-08T08:02:44;100861.27;;;25.19;35.89
56582;BME280;42463;52.214;21.238;2023-07-08T08:04:48;100862.73;;;25.27;35.89
56582;BME280;42463;52.214;21.238;2023-07-08T08:06:52;100862.77;;;25.34;36.03
56582;BME280;42463;52.214;21.238;2023-07-08T08:08:56;100857.23;;;25.41;36.03
56582;BME280;42463;52.214;21.238;2023-07-08T08:11:00;100859.31;;;25.46;35.89
56582;BME280;42463;52.214;21.238;2023-07-08T08:13:04;100859.65;;;25.52;35.45
56582;BME280;42463;52.214;21.238;2023-07-08T08:15:10;100860.72;;;25.57;36.31
56582;BME280;42463;52.214;21.238;2023-07-08T08:17:14;100857.91;;;25.63;35.46
56582;BME280;42463;52.214;21.238;2023-07-08T08:19:18;100863.04;;;25.71;36.01
56582;BME280;42463;52.214;21.238;2023-07-08T08:21:22;100860.08;;;25.78;34.46
56582;BME280;42463;52.214;21.238;2023-07-08T08:23:27;100856.20;;;25.83;34.77
56582;BME280;42463;52.214;21.238;2023-07-08T08:25:31;100864.60;;;25.90;34.78
56582;BME280;42463;52.214;21.238;2023-07-08T08:27:35;100867.63;;;25.92;34.61
56582;BME280;42463;52.214;21.238;2023-07-08T08:29:39;100863.68;;;25.95;35.45
56582;BME280;42463;52.214;21.238;2023-07-08T08:31:43;100865.61;;;26.02;34.07
56582;BME280;42463;52.214;21.238;2023-07-08T08:33:47;100865.08;;;26.05;33.36
56582;BME280;42463;52.214;21.238;2023-07-08T08:35:51;100866.79;;;26.12;34.35
56582;BME280;42463;52.214;21.238;2023-07-08T08:37:55;100863.22;;;26.17;34.20
56582;BME280;42463;52.214;21.238;2023-07-08T08:39:59;100861.73;;;26.15;33.31
56582;BME280;42463;52.214;21.238;2023-07-08T08:42:04;100864.27;;;26.17;35.00
56582;BME280;42463;52.214;21.238;2023-07-08T08:44:10;100866.25;;;26.17;35.12
56582;BME280;42463;52.214;21.238;2023-07-08T08:46:19;100860.86;;;26.15;33.75
56582;BME280;42463;52.214;21.238;2023-07-08T08:48:27;100861.46;;;26.17;33.58
56582;BME280;42463;52.214;21.238;2023-07-08T08:50:35;100862.71;;;26.21;33.72
56582;BME280;42463;52.214;21.238;2023-07-08T08:52:46;100864.73;;;26.22;34.37
56582;BME280;42463;52.214;21.238;2023-07-08T08:54:50;100862.77;;;26.23;33.40
56582;BME280;42463;52.214;21.238;2023-07-08T08:56:57;100858.51;;;26.26;33.06
56582;BME280;42463;52.214;21.238;2023-07-08T08:59:06;100858.16;;;26.30;32.93
56582;BME280;42463;52.214;21.238;2023-07-08T09:01:16;100857.39;;;26.37;33.88
56582;BME280;42463;52.214;21.238;2023-07-08T09:03:21;100861.80;;;26.44;33.21
56582;BME280;42463;52.214;21.238;2023-07-08T09:05:28;100863.58;;;26.50;33.04
56582;BME280;42463;52.214;21.238;2023-07-08T09:07:33;100865.66;;;26.53;32.18
56582;BME280;42463;52.214;21.238;2023-07-08T09:09:41;100863.17;;;26.55;31.88
56582;BME280;42463;52.214;21.238;2023-07-08T09:11:50;100858.20;;;26.59;31.72
56582;BME280;42463;52.214;21.238;2023-07-08T09:13:56;100861.13;;;26.58;32.09
56582;BME280;42463;52.214;21.238;2023-07-08T09:16:02;100863.86;;;26.57;32.66
56582;BME280;42463;52.214;21.238;2023-07-08T09:18:12;100863.59;;;26.61;32.22
56582;BME280;42463;52.214;21.238;2023-07-08T09:20:20;100862.30;;;26.68;32.48
56582;BME280;42463;52.214;21.238;2023-07-08T09:22:28;100857.42;;;26.78;32.26
56582;BME280;42463;52.214;21.238;2023-07-08T09:24:37;100857.20;;;26.90;32.06
56582;BME280;42463;52.214;21.238;2023-07-08T09:26:43;100855.52;;;26.99;31.78
56582;BME280;42463;52.214;21.238;2023-07-08T09:28:48;100861.17;;;27.02;31.70
56582;BME280;42463;52.214;21.238;2023-07-08T09:30:53;100859.80;;;27.02;32.12
56582;BME280;42463;52.214;21.238;2023-07-08T09:32:57;100859.92;;;27.00;31.20
56582;BME280;42463;52.214;21.238;2023-07-08T09:35:03;100859.60;;;26.98;30.75
56582;BME280;42463;52.214;21.238;2023-07-08T09:37:20;100860.84;;;26.95;31.41
56582;BME280;42463;52.214;21.238;2023-07-08T09:39:24;100858.04;;;26.94;31.11
56582;BME280;42463;52.214;21.238;2023-07-08T09:41:32;100859.71;;;26.96;29.55
56582;BME280;42463;52.214;21.238;2023-07-08T09:43:38;100864.71;;;26.94;29.02
56582;BME280;42463;52.214;21.238;2023-07-08T09:45:44;100857.77;;;26.90;29.31
56582;BME280;42463;52.214;21.238;2023-07-08T09:47:51;100855.44;;;26.95;31.35
56582;BME280;42463;52.214;21.238;2023-07-08T09:49:56;100852.54;;;27.01;30.90
56582;BME280;42463;52.214;21.238;2023-07-08T09:52:02;100854.25;;;27.10;32.38
56582;BME280;42463;52.214;21.238;2023-07-08T09:54:07;100850.52;;;27.19;31.85
56582;BME280;42463;52.214;21.238;2023-07-08T09:56:11;100845.88;;;27.26;31.23
56582;BME280;42463;52.214;21.238;2023-07-08T09:58:18;100846.96;;;27.34;31.28
56582;BME280;42463;52.214;21.238;2023-07-08T10:00:28;100848.38;;;27.43;30.36
56582;BME280;42463;52.214;21.238;2023-07-08T10:02:40;100847.81;;;27.49;29.91
56582;BME280;42463;52.214;21.238;2023-07-08T10:04:45;100854.11;;;27.55;30.03
56582;BME280;42463;52.214;21.238;2023-07-08T10:06:49;100851.25;;;27.61;29.23
56582;BME280;42463;52.214;21.238;2023-07-08T10:08:59;100848.48;;;27.64;28.82
56582;BME280;42463;52.214;21.238;2023-07-08T10:11:22;100844.39;;;27.66;29.79
56582;BME280;42463;52.214;21.238;2023-07-08T10:13:28;100838.68;;;27.67;28.39
56582;BME280;42463;52.214;21.238;2023-07-08T10:15:38;100838.86;;;27.68;29.22
56582;BME280;42463;52.214;21.238;2023-07-08T10:17:44;100837.02;;;27.70;29.13
56582;BME280;42463;52.214;21.238;2023-07-08T10:19:48;100840.81;;;27.73;29.39
56582;BME280;42463;52.214;21.238;2023-07-08T10:21:55;100833.52;;;27.74;28.31
56582;BME280;42463;52.214;21.238;2023-07-08T10:24:01;100830.42;;;27.77;28.50
56582;BME280;42463;52.214;21.238;2023-07-08T10:26:13;100831.19;;;27.86;29.96
56582;BME280;42463;52.214;21.238;2023-07-08T10:28:23;100821.84;;;27.95;29.08
56582;BME280;42463;52.214;21.238;2023-07-08T10:30:31;100821.25;;;28.04;29.04
56582;BME280;42463;52.214;21.238;2023-07-08T10:32:40;100824.57;;;28.15;28.81
56582;BME280;42463;52.214;21.238;2023-07-08T10:34:47;100825.34;;;28.21;28.36
56582;BME280;42463;52.214;21.238;2023-07-08T10:36:56;100827.73;;;28.23;27.60
56582;BME280;42463;52.214;21.238;2023-07-08T10:39:12;100824.66;;;28.28;27.87
56582;BME280;42463;52.214;21.238;2023-07-08T10:41:22;100822.17;;;28.35;27.56
56582;BME280;42463;52.214;21.238;2023-07-08T10:43:33;100818.40;;;28.37;28.82
56582;BME280;42463;52.214;21.238;2023-07-08T10:45:46;100817.49;;;28.43;28.81
56582;BME280;42463;52.214;21.238;2023-07-08T10:48:00;100803.77;;;28.43;27.77
56582;BME280;42463;52.214;21.238;2023-07-08T10:50:14;100808.30;;;28.46;29.77
56582;BME280;42463;52.214;21.238;2023-07-08T10:52:26;100805.64;;;28.51;29.45
56582;BME280;42463;52.214;21.238;2023-07-08T10:54:39;100808.23;;;28.57;28.57
56582;BME280;42463;52.214;21.238;2023-07-08T10:56:49;100809.41;;;28.60;28.36